sensor_id;sensor_type;location;lat;lon;timestamp;P1;durP1;ratioP1;P2;durP2;ratioP2
37483;SDS011;23337;52.212;9.926;2022-08-19T00:00:33;9.27;;;7.17;;
37483;SDS011;23337;52.212;9.926;2022-08-19T00:02:59;10.57;;;7.07;;
37483;SDS011;23337;52.212;9.926;2022-08-19T00:05:25;8.17;;;7.37;;
37483;SDS011;23337;52.212;9.926;2022-08-19T00:07:51;8.10;;;7.00;;
37483;SDS011;23337;52.212;9.926;2022-08-19T00:10:17;9.97;;;7.00;;
37483;SDS011;23337;52.212;9.926;2022-08-19T00:12:44;8.77;;;7.60;;
37483;SDS011;23337;52.212;9.926;2022-08-19T00:15:11;10.03;;;7.93;;
37483;SDS011;23337;52.212;9.926;2022-08-19T00:17:39;9.77;;;7.83;;
37483;SDS011;23337;52.212;9.926;2022-08-19T00:20:05;8.67;;;7.73;;
37483;SDS011;23337;52.212;9.926;2022-08-19T00:22:31;11.17;;;8.03;;
37483;SDS011;23337;52.212;9.926;2022-08-19T00:24:58;9.60;;;8.17;;
37483;SDS011;23337;52.212;9.926;2022-08-19T00:27:24;10.50;;;8.03;;
37483;SDS011;23337;52.212;9.926;2022-08-19T00:29:50;9.00;;;8.10;;
37483;SDS011;23337;52.212;9.926;2022-08-19T00:32:16;11.43;;;9.00;;
37483;SDS011;23337;52.212;9.926;2022-08-19T00:34:42;12.83;;;9.73;;
37483;SDS011;23337;52.212;9.926;2022-08-19T00:37:09;10.97;;;8.60;;
37483;SDS011;23337;52.212;9.926;2022-08-19T00:39:35;9.83;;;8.83;;
37483;SDS011;23337;52.212;9.926;2022-08-19T00:42:01;9.13;;;8.33;;
37483;SDS011;23337;52.212;9.926;2022-08-19T00:44:27;9.20;;;8.00;;
37483;SDS011;23337;52.212;9.926;2022-08-19T00:46:56;9.13;;;8.20;;
37483;SDS011;23337;52.212;9.926;2022-08-19T00:52:14;9.17;;;7.97;;
37483;SDS011;23337;52.212;9.926;2022-08-19T00:54:41;8.67;;;7.70;;
37483;SDS011;23337;52.212;9.926;2022-08-19T00:57:08;8.17;;;7.47;;
37483;SDS011;23337;52.212;9.926;2022-08-19T00:59:35;7.73;;;6.93;;
37483;SDS011;23337;52.212;9.926;2022-08-19T01:02:02;10.30;;;8.60;;
37483;SDS011;23337;52.212;9.926;2022-08-19T01:04:29;8.30;;;7.50;;
37483;SDS011;23337;52.212;9.926;2022-08-19T01:06:55;9.87;;;7.90;;
37483;SDS011;23337;52.212;9.926;2022-08-19T01:09:22;10.73;;;7.70;;
37483;SDS011;23337;52.212;9.926;2022-08-19T01:11:48;10.17;;;8.00;;
37483;SDS011;23337;52.212;9.926;2022-08-19T01:14:14;8.63;;;7.67;;
37483;SDS011;23337;52.212;9.926;2022-08-19T01:16:41;8.60;;;7.67;;
37483;SDS011;23337;52.212;9.926;2022-08-19T01:19:12;7.67;;;6.87;;
37483;SDS011;23337;52.212;9.926;2022-08-19T01:21:47;11.67;;;8.83;;
37483;SDS011;23337;52.212;9.926;2022-08-19T01:24:16;8.77;;;7.87;;
37483;SDS011;23337;52.212;9.926;2022-08-19T01:26:42;8.93;;;8.00;;
37483;SDS011;23337;52.212;9.926;2022-08-19T01:29:10;9.60;;;8.37;;
37483;SDS011;23337;52.212;9.926;2022-08-19T01:31:36;8.67;;;7.77;;
37483;SDS011;23337;52.212;9.926;2022-08-19T01:34:04;8.97;;;8.07;;
37483;SDS011;23337;52.212;9.926;2022-08-19T01:36:38;9.47;;;8.57;;
37483;SDS011;23337;52.212;9.926;2022-08-19T01:39:08;9.20;;;7.93;;
37483;SDS011;23337;52.212;9.926;2022-08-19T01:41:34;10.03;;;8.67;;
37483;SDS011;23337;52.212;9.926;2022-08-19T01:44:00;10.30;;;8.63;;
37483;SDS011;23337;52.212;9.926;2022-08-19T01:46:28;9.63;;;8.63;;
37483;SDS011;23337;52.212;9.926;2022-08-19T01:48:55;11.17;;;9.27;;
37483;SDS011;23337;52.212;9.926;2022-08-19T01:51:21;9.97;;;8.63;;
37483;SDS011;23337;52.212;9.926;2022-08-19T01:53:47;8.80;;;7.90;;
37483;SDS011;23337;52.212;9.926;2022-08-19T01:56:13;8.90;;;8.10;;
37483;SDS011;23337;52.212;9.926;2022-08-19T01:58:41;9.40;;;8.33;;
37483;SDS011;23337;52.212;9.926;2022-08-19T02:01:08;9.00;;;8.00;;
37483;SDS011;23337;52.212;9.926;2022-08-19T02:03:34;9.47;;;8.07;;
37483;SDS011;23337;52.212;9.926;2022-08-19T02:06:01;8.23;;;7.43;;
37483;SDS011;23337;52.212;9.926;2022-08-19T02:08:29;9.77;;;8.40;;
37483;SDS011;23337;52.212;9.926;2022-08-19T02:10:55;7.63;;;6.93;;
37483;SDS011;23337;52.212;9.926;2022-08-19T02:13:22;8.17;;;7.20;;
37483;SDS011;23337;52.212;9.926;2022-08-19T02:15:48;9.43;;;8.27;;
37483;SDS011;23337;52.212;9.926;2022-08-19T02:18:14;10.20;;;8.67;;
37483;SDS011;23337;52.212;9.926;2022-08-19T02:20:41;11.70;;;7.77;;
37483;SDS011;23337;52.212;9.926;2022-08-19T02:23:08;10.67;;;9.10;;
37483;SDS011;23337;52.212;9.926;2022-08-19T02:25:34;10.87;;;8.50;;
37483;SDS011;23337;52.212;9.926;2022-08-19T02:28:00;9.63;;;7.87;;
37483;SDS011;23337;52.212;9.926;2022-08-19T02:30:27;10.30;;;8.40;;
37483;SDS011;23337;52.212;9.926;2022-08-19T02:32:53;9.03;;;7.93;;
37483;SDS011;23337;52.212;9.926;2022-08-19T02:35:19;8.30;;;7.50;;
37483;SDS011;23337;52.212;9.926;2022-08-19T02:37:46;9.10;;;8.20;;
37483;SDS011;23337;52.212;9.926;2022-08-19T02:40:31;8.73;;;7.53;;
37483;SDS011;23337;52.212;9.926;2022-08-19T02:43:01;9.93;;;7.70;;
37483;SDS011;23337;52.212;9.926;2022-08-19T02:45:31;9.83;;;8.83;;
37483;SDS011;23337;52.212;9.926;2022-08-19T02:47:57;8.53;;;7.63;;
37483;SDS011;23337;52.212;9.926;2022-08-19T02:50:23;9.57;;;8.57;;
37483;SDS011;23337;52.212;9.926;2022-08-19T02:52:49;9.53;;;8.60;;
37483;SDS011;23337;52.212;9.926;2022-08-19T02:55:15;10.20;;;9.07;;
37483;SDS011;23337;52.212;9.926;2022-08-19T02:57:41;10.67;;;8.73;;
37483;SDS011;23337;52.212;9.926;2022-08-19T03:00:07;10.73;;;9.57;;
37483;SDS011;23337;52.212;9.926;2022-08-19T03:02:37;9.20;;;8.40;;
37483;SDS011;23337;52.212;9.926;2022-08-19T03:05:03;8.83;;;8.03;;
37483;SDS011;23337;52.212;9.926;2022-08-19T03:07:30;8.73;;;8.00;;
37483;SDS011;23337;52.212;9.926;2022-08-19T03:09:56;11.57;;;8.73;;
37483;SDS011;23337;52.212;9.926;2022-08-19T03:12:22;12.20;;;10.83;;
37483;SDS011;23337;52.212;9.926;2022-08-19T03:14:48;8.83;;;7.93;;
37483;SDS011;23337;52.212;9.926;2022-08-19T03:17:15;10.60;;;8.87;;
37483;SDS011;23337;52.212;9.926;2022-08-19T03:19:41;10.40;;;8.23;;
37483;SDS011;23337;52.212;9.926;2022-08-19T03:22:08;9.87;;;7.77;;
37483;SDS011;23337;52.212;9.926;2022-08-19T03:24:34;9.07;;;8.10;;
37483;SDS011;23337;52.212;9.926;2022-08-19T03:27:00;8.97;;;8.07;;
37483;SDS011;23337;52.212;9.926;2022-08-19T03:29:27;8.97;;;8.07;;
37483;SDS011;23337;52.212;9.926;2022-08-19T03:31:53;9.60;;;8.40;;
37483;SDS011;23337;52.212;9.926;2022-08-19T03:34:24;10.03;;;9.03;;
37483;SDS011;23337;52.212;9.926;2022-08-19T03:36:51;12.77;;;8.93;;
37483;SDS011;23337;52.212;9.926;2022-08-19T03:39:17;11.83;;;9.27;;
37483;SDS011;23337;52.212;9.926;2022-08-19T03:41:44;9.17;;;8.27;;
37483;SDS011;23337;52.212;9.926;2022-08-19T03:44:15;10.37;;;8.80;;
37483;SDS011;23337;52.212;9.926;2022-08-19T03:46:42;10.53;;;9.10;;
37483;SDS011;23337;52.212;9.926;2022-08-19T03:49:08;11.97;;;9.00;;
37483;SDS011;23337;52.212;9.926;2022-08-19T03:51:36;9.83;;;8.93;;
37483;SDS011;23337;52.212;9.926;2022-08-19T03:54:03;9.77;;;8.77;;
37483;SDS011;23337;52.212;9.926;2022-08-19T03:56:30;10.00;;;9.00;;
37483;SDS011;23337;52.212;9.926;2022-08-19T03:58:57;9.03;;;8.13;;
37483;SDS011;23337;52.212;9.926;2022-08-19T04:01:25;10.13;;;8.90;;
37483;SDS011;23337;52.212;9.926;2022-08-19T04:03:52;14.93;;;10.13;;
37483;SDS011;23337;52.212;9.926;2022-08-19T04:06:19;11.67;;;9.93;;
37483;SDS011;23337;52.212;9.926;2022-08-19T04:08:47;9.83;;;8.47;;
37483;SDS011;23337;52.212;9.926;2022-08-19T04:11:14;11.20;;;10.07;;
37483;SDS011;23337;52.212;9.926;2022-08-19T04:13:41;9.37;;;8.50;;
37483;SDS011;23337;52.212;9.926;2022-08-19T04:16:08;11.40;;;10.30;;
37483;SDS011;23337;52.212;9.926;2022-08-19T04:18:35;10.57;;;9.47;;
37483;SDS011;23337;52.212;9.926;2022-08-19T04:21:02;13.87;;;9.47;;
37483;SDS011;23337;52.212;9.926;2022-08-19T04:23:28;10.67;;;9.77;;
37483;SDS011;23337;52.212;9.926;2022-08-19T04:25:55;11.17;;;10.10;;
37483;SDS011;23337;52.212;9.926;2022-08-19T04:28:21;14.40;;;11.10;;
37483;SDS011;23337;52.212;9.926;2022-08-19T04:30:48;10.60;;;9.50;;
37483;SDS011;23337;52.212;9.926;2022-08-19T04:33:16;11.73;;;10.13;;
37483;SDS011;23337;52.212;9.926;2022-08-19T04:35:43;11.37;;;10.27;;
37483;SDS011;23337;52.212;9.926;2022-08-19T04:38:10;10.73;;;9.67;;
37483;SDS011;23337;52.212;9.926;2022-08-19T04:40:39;10.40;;;9.23;;
37483;SDS011;23337;52.212;9.926;2022-08-19T04:43:24;10.33;;;9.30;;
37483;SDS011;23337;52.212;9.926;2022-08-19T04:45:50;10.20;;;9.27;;
37483;SDS011;23337;52.212;9.926;2022-08-19T04:48:16;10.37;;;9.33;;
37483;SDS011;23337;52.212;9.926;2022-08-19T04:50:47;10.43;;;8.90;;
37483;SDS011;23337;52.212;9.926;2022-08-19T04:53:13;11.30;;;10.00;;
37483;SDS011;23337;52.212;9.926;2022-08-19T04:55:41;9.57;;;8.53;;
37483;SDS011;23337;52.212;9.926;2022-08-19T04:58:07;9.67;;;8.67;;
37483;SDS011;23337;52.212;9.926;2022-08-19T05:00:33;9.93;;;8.77;;
37483;SDS011;23337;52.212;9.926;2022-08-19T05:02:59;10.40;;;8.30;;
37483;SDS011;23337;52.212;9.926;2022-08-19T05:05:25;9.67;;;8.67;;
37483;SDS011;23337;52.212;9.926;2022-08-19T05:07:51;8.83;;;7.93;;
37483;SDS011;23337;52.212;9.926;2022-08-19T05:10:17;9.43;;;7.43;;
37483;SDS011;23337;52.212;9.926;2022-08-19T05:12:44;9.97;;;8.57;;
37483;SDS011;23337;52.212;9.926;2022-08-19T05:15:09;9.17;;;8.07;;
37483;SDS011;23337;52.212;9.926;2022-08-19T05:17:36;8.63;;;7.47;;
37483;SDS011;23337;52.212;9.926;2022-08-19T05:20:03;8.07;;;7.00;;
37483;SDS011;23337;52.212;9.926;2022-08-19T05:22:48;8.60;;;7.13;;
37483;SDS011;23337;52.212;9.926;2022-08-19T05:25:15;7.33;;;6.57;;
37483;SDS011;23337;52.212;9.926;2022-08-19T05:27:43;6.73;;;6.13;;
37483;SDS011;23337;52.212;9.926;2022-08-19T05:30:09;7.67;;;6.83;;
37483;SDS011;23337;52.212;9.926;2022-08-19T05:32:36;6.50;;;5.90;;
37483;SDS011;23337;52.212;9.926;2022-08-19T05:35:03;7.17;;;6.47;;
37483;SDS011;23337;52.212;9.926;2022-08-19T05:37:29;7.47;;;5.90;;
37483;SDS011;23337;52.212;9.926;2022-08-19T05:39:55;11.57;;;6.80;;
37483;SDS011;23337;52.212;9.926;2022-08-19T05:42:21;7.03;;;6.33;;
37483;SDS011;23337;52.212;9.926;2022-08-19T05:44:47;8.20;;;6.03;;
37483;SDS011;23337;52.212;9.926;2022-08-19T05:47:14;9.87;;;7.23;;
37483;SDS011;23337;52.212;9.926;2022-08-19T05:49:40;8.27;;;7.07;;
37483;SDS011;23337;52.212;9.926;2022-08-19T05:52:09;9.00;;;7.60;;
37483;SDS011;23337;52.212;9.926;2022-08-19T05:54:37;9.00;;;7.53;;
37483;SDS011;23337;52.212;9.926;2022-08-19T05:57:05;7.20;;;6.60;;
37483;SDS011;23337;52.212;9.926;2022-08-19T05:59:31;9.03;;;8.23;;
37483;SDS011;23337;52.212;9.926;2022-08-19T06:01:58;8.17;;;7.30;;
37483;SDS011;23337;52.212;9.926;2022-08-19T06:04:25;9.63;;;8.30;;
37483;SDS011;23337;52.212;9.926;2022-08-19T06:06:52;7.27;;;6.67;;
37483;SDS011;23337;52.212;9.926;2022-08-19T06:09:18;9.63;;;7.70;;
37483;SDS011;23337;52.212;9.926;2022-08-19T06:11:49;8.90;;;8.00;;
37483;SDS011;23337;52.212;9.926;2022-08-19T06:14:19;7.87;;;7.13;;
37483;SDS011;23337;52.212;9.926;2022-08-19T06:16:45;11.17;;;8.90;;
37483;SDS011;23337;52.212;9.926;2022-08-19T06:19:12;8.63;;;7.73;;
37483;SDS011;23337;52.212;9.926;2022-08-19T06:21:40;8.03;;;7.33;;
37483;SDS011;23337;52.212;9.926;2022-08-19T06:24:07;8.53;;;7.73;;
37483;SDS011;23337;52.212;9.926;2022-08-19T06:26:36;8.57;;;7.43;;
37483;SDS011;23337;52.212;9.926;2022-08-19T06:29:03;9.23;;;8.33;;
37483;SDS011;23337;52.212;9.926;2022-08-19T06:31:31;9.20;;;8.30;;
37483;SDS011;23337;52.212;9.926;2022-08-19T06:33:58;10.20;;;9.23;;
37483;SDS011;23337;52.212;9.926;2022-08-19T06:36:27;10.43;;;8.67;;
37483;SDS011;23337;52.212;9.926;2022-08-19T06:38:56;9.43;;;8.47;;
37483;SDS011;23337;52.212;9.926;2022-08-19T06:41:23;11.57;;;10.20;;
37483;SDS011;23337;52.212;9.926;2022-08-19T06:43:49;9.60;;;8.60;;
37483;SDS011;23337;52.212;9.926;2022-08-19T06:46:15;10.80;;;9.67;;
37483;SDS011;23337;52.212;9.926;2022-08-19T06:48:43;9.63;;;8.67;;
37483;SDS011;23337;52.212;9.926;2022-08-19T06:51:09;12.27;;;10.90;;
37483;SDS011;23337;52.212;9.926;2022-08-19T06:53:35;11.80;;;10.20;;
37483;SDS011;23337;52.212;9.926;2022-08-19T06:56:01;12.10;;;10.90;;
37483;SDS011;23337;52.212;9.926;2022-08-19T06:58:28;15.37;;;11.17;;
37483;SDS011;23337;52.212;9.926;2022-08-19T07:00:57;15.13;;;13.53;;
37483;SDS011;23337;52.212;9.926;2022-08-19T07:03:25;15.40;;;12.90;;
37483;SDS011;23337;52.212;9.926;2022-08-19T07:05:53;17.30;;;14.90;;
37483;SDS011;23337;52.212;9.926;2022-08-19T07:08:19;18.40;;;14.97;;
37483;SDS011;23337;52.212;9.926;2022-08-19T07:10:45;19.23;;;16.17;;
37483;SDS011;23337;52.212;9.926;2022-08-19T07:13:11;19.10;;;16.90;;
37483;SDS011;23337;52.212;9.926;2022-08-19T07:15:37;18.33;;;15.70;;
37483;SDS011;23337;52.212;9.926;2022-08-19T07:18:03;20.50;;;16.17;;
37483;SDS011;23337;52.212;9.926;2022-08-19T07:20:29;20.73;;;16.30;;
37483;SDS011;23337;52.212;9.926;2022-08-19T07:22:56;12.50;;;11.03;;
37483;SDS011;23337;52.212;9.926;2022-08-19T07:25:22;18.47;;;13.97;;
37483;SDS011;23337;52.212;9.926;2022-08-19T07:27:48;13.90;;;11.93;;
37483;SDS011;23337;52.212;9.926;2022-08-19T07:30:15;16.73;;;14.00;;
37483;SDS011;23337;52.212;9.926;2022-08-19T07:32:41;19.13;;;15.93;;
37483;SDS011;23337;52.212;9.926;2022-08-19T07:35:08;17.57;;;15.00;;
37483;SDS011;23337;52.212;9.926;2022-08-19T07:37:34;15.13;;;13.53;;
37483;SDS011;23337;52.212;9.926;2022-08-19T07:40:02;16.60;;;13.03;;
37483;SDS011;23337;52.212;9.926;2022-08-19T07:42:28;14.40;;;12.97;;
37483;SDS011;23337;52.212;9.926;2022-08-19T07:44:54;14.90;;;13.20;;
37483;SDS011;23337;52.212;9.926;2022-08-19T07:47:20;15.63;;;13.87;;
37483;SDS011;23337;52.212;9.926;2022-08-19T07:49:47;18.47;;;15.67;;
37483;SDS011;23337;52.212;9.926;2022-08-19T07:52:13;19.43;;;15.53;;
37483;SDS011;23337;52.212;9.926;2022-08-19T07:54:41;16.40;;;13.07;;
37483;SDS011;23337;52.212;9.926;2022-08-19T07:57:08;17.33;;;15.50;;
37483;SDS011;23337;52.212;9.926;2022-08-19T07:59:34;16.67;;;14.03;;
37483;SDS011;23337;52.212;9.926;2022-08-19T08:02:01;13.93;;;12.37;;
37483;SDS011;23337;52.212;9.926;2022-08-19T08:04:28;13.93;;;12.17;;
37483;SDS011;23337;52.212;9.926;2022-08-19T08:07:13;15.50;;;13.93;;
37483;SDS011;23337;52.212;9.926;2022-08-19T08:09:58;15.40;;;13.30;;
37483;SDS011;23337;52.212;9.926;2022-08-19T08:12:26;15.20;;;13.70;;
37483;SDS011;23337;52.212;9.926;2022-08-19T08:14:54;14.70;;;13.30;;
37483;SDS011;23337;52.212;9.926;2022-08-19T08:17:21;17.47;;;12.67;;
37483;SDS011;23337;52.212;9.926;2022-08-19T08:19:47;17.37;;;15.57;;
37483;SDS011;23337;52.212;9.926;2022-08-19T08:22:16;15.03;;;13.47;;
37483;SDS011;23337;52.212;9.926;2022-08-19T08:25:06;14.53;;;12.93;;
37483;SDS011;23337;52.212;9.926;2022-08-19T08:27:35;14.73;;;13.23;;
37483;SDS011;23337;52.212;9.926;2022-08-19T08:30:02;15.10;;;13.63;;
37483;SDS011;23337;52.212;9.926;2022-08-19T08:32:29;15.30;;;13.77;;
37483;SDS011;23337;52.212;9.926;2022-08-19T08:34:55;14.27;;;12.83;;
37483;SDS011;23337;52.212;9.926;2022-08-19T08:37:21;15.43;;;12.00;;
37483;SDS011;23337;52.212;9.926;2022-08-19T08:39:47;14.03;;;12.50;;
37483;SDS011;23337;52.212;9.926;2022-08-19T08:42:34;12.63;;;11.33;;
37483;SDS011;23337;52.212;9.926;2022-08-19T08:45:00;13.87;;;11.83;;
37483;SDS011;23337;52.212;9.926;2022-08-19T08:47:31;13.30;;;11.37;;
37483;SDS011;23337;52.212;9.926;2022-08-19T08:50:02;13.63;;;12.33;;
37483;SDS011;23337;52.212;9.926;2022-08-19T08:52:30;12.43;;;11.33;;
37483;SDS011;23337;52.212;9.926;2022-08-19T08:55:00;13.30;;;11.13;;
37483;SDS011;23337;52.212;9.926;2022-08-19T08:57:35;13.60;;;12.40;;
37483;SDS011;23337;52.212;9.926;2022-08-19T09:00:05;13.10;;;11.73;;
37483;SDS011;23337;52.212;9.926;2022-08-19T09:02:31;13.37;;;12.07;;
37483;SDS011;23337;52.212;9.926;2022-08-19T09:04:57;13.40;;;12.00;;
37483;SDS011;23337;52.212;9.926;2022-08-19T09:10:00;14.60;;;13.17;;
37483;SDS011;23337;52.212;9.926;2022-08-19T09:12:35;13.33;;;12.03;;
37483;SDS011;23337;52.212;9.926;2022-08-19T09:15:06;12.93;;;11.63;;
37483;SDS011;23337;52.212;9.926;2022-08-19T09:17:33;10.33;;;9.40;;
37483;SDS011;23337;52.212;9.926;2022-08-19T09:22:37;10.67;;;9.67;;
37483;SDS011;23337;52.212;9.926;2022-08-19T09:25:03;9.43;;;8.50;;
37483;SDS011;23337;52.212;9.926;2022-08-19T09:27:30;8.77;;;7.90;;
37483;SDS011;23337;52.212;9.926;2022-08-19T09:29:57;9.57;;;8.57;;
37483;SDS011;23337;52.212;9.926;2022-08-19T09:32:23;10.23;;;9.13;;
37483;SDS011;23337;52.212;9.926;2022-08-19T09:34:52;9.53;;;8.63;;
37483;SDS011;23337;52.212;9.926;2022-08-19T09:37:19;8.57;;;7.43;;
37483;SDS011;23337;52.212;9.926;2022-08-19T09:39:46;7.67;;;6.97;;
37483;SDS011;23337;52.212;9.926;2022-08-19T09:42:12;6.97;;;6.27;;
37483;SDS011;23337;52.212;9.926;2022-08-19T09:44:39;7.10;;;6.40;;
37483;SDS011;23337;52.212;9.926;2022-08-19T09:47:06;6.83;;;6.23;;
37483;SDS011;23337;52.212;9.926;2022-08-19T09:49:32;8.07;;;7.27;;
37483;SDS011;23337;52.212;9.926;2022-08-19T09:51:58;8.73;;;7.40;;
37483;SDS011;23337;52.212;9.926;2022-08-19T09:54:25;7.77;;;7.03;;
37483;SDS011;23337;52.212;9.926;2022-08-19T09:56:52;7.00;;;6.30;;
37483;SDS011;23337;52.212;9.926;2022-08-19T09:59:18;6.23;;;5.63;;
37483;SDS011;23337;52.212;9.926;2022-08-19T10:01:45;7.90;;;7.10;;
37483;SDS011;23337;52.212;9.926;2022-08-19T10:04:11;7.60;;;6.90;;
37483;SDS011;23337;52.212;9.926;2022-08-19T10:06:37;7.83;;;7.10;;
37483;SDS011;23337;52.212;9.926;2022-08-19T10:09:05;7.50;;;6.73;;
37483;SDS011;23337;52.212;9.926;2022-08-19T10:11:31;8.83;;;6.23;;
37483;SDS011;23337;52.212;9.926;2022-08-19T10:13:57;7.97;;;5.00;;
37483;SDS011;23337;52.212;9.926;2022-08-19T10:16:24;6.23;;;5.63;;
37483;SDS011;23337;52.212;9.926;2022-08-19T10:18:51;7.50;;;6.27;;
37483;SDS011;23337;52.212;9.926;2022-08-19T10:21:25;5.97;;;5.47;;
37483;SDS011;23337;52.212;9.926;2022-08-19T10:23:52;4.63;;;3.83;;
37483;SDS011;23337;52.212;9.926;2022-08-19T10:26:20;5.83;;;4.63;;
37483;SDS011;23337;52.212;9.926;2022-08-19T10:28:47;4.93;;;4.30;;
37483;SDS011;23337;52.212;9.926;2022-08-19T10:31:18;5.90;;;3.53;;
37483;SDS011;23337;52.212;9.926;2022-08-19T10:33:48;4.87;;;3.70;;
37483;SDS011;23337;52.212;9.926;2022-08-19T10:36:17;4.67;;;3.70;;
37483;SDS011;23337;52.212;9.926;2022-08-19T10:38:44;4.13;;;3.43;;
37483;SDS011;23337;52.212;9.926;2022-08-19T10:41:11;5.20;;;3.60;;
37483;SDS011;23337;52.212;9.926;2022-08-19T10:43:38;7.30;;;4.20;;
37483;SDS011;23337;52.212;9.926;2022-08-19T10:46:06;5.03;;;3.73;;
37483;SDS011;23337;52.212;9.926;2022-08-19T10:48:32;3.90;;;2.97;;
37483;SDS011;23337;52.212;9.926;2022-08-19T10:50:59;3.53;;;3.20;;
37483;SDS011;23337;52.212;9.926;2022-08-19T10:53:44;3.63;;;3.00;;
37483;SDS011;23337;52.212;9.926;2022-08-19T10:56:10;3.53;;;2.90;;
37483;SDS011;23337;52.212;9.926;2022-08-19T10:58:54;3.30;;;2.90;;
37483;SDS011;23337;52.212;9.926;2022-08-19T11:01:21;2.23;;;2.03;;
37483;SDS011;23337;52.212;9.926;2022-08-19T11:03:47;4.30;;;2.13;;
37483;SDS011;23337;52.212;9.926;2022-08-19T11:06:14;2.60;;;1.70;;
37483;SDS011;23337;52.212;9.926;2022-08-19T11:08:40;2.47;;;1.90;;
37483;SDS011;23337;52.212;9.926;2022-08-19T11:11:08;1.47;;;1.30;;
37483;SDS011;23337;52.212;9.926;2022-08-19T11:13:36;2.63;;;2.07;;
37483;SDS011;23337;52.212;9.926;2022-08-19T11:16:04;4.17;;;1.93;;
37483;SDS011;23337;52.212;9.926;2022-08-19T11:18:31;2.90;;;2.30;;
37483;SDS011;23337;52.212;9.926;2022-08-19T11:21:07;3.63;;;2.00;;
37483;SDS011;23337;52.212;9.926;2022-08-19T11:23:33;4.37;;;2.10;;
37483;SDS011;23337;52.212;9.926;2022-08-19T11:25:59;2.63;;;2.00;;
37483;SDS011;23337;52.212;9.926;2022-08-19T11:28:26;4.83;;;2.93;;
37483;SDS011;23337;52.212;9.926;2022-08-19T11:30:52;2.97;;;1.83;;
37483;SDS011;23337;52.212;9.926;2022-08-19T11:33:18;3.87;;;1.90;;
37483;SDS011;23337;52.212;9.926;2022-08-19T11:35:44;4.37;;;1.87;;
37483;SDS011;23337;52.212;9.926;2022-08-19T11:38:10;2.90;;;1.97;;
37483;SDS011;23337;52.212;9.926;2022-08-19T11:40:36;3.10;;;1.67;;
37483;SDS011;23337;52.212;9.926;2022-08-19T11:43:02;4.73;;;1.87;;
37483;SDS011;23337;52.212;9.926;2022-08-19T11:45:28;1.93;;;1.77;;
37483;SDS011;23337;52.212;9.926;2022-08-19T11:47:54;3.27;;;1.67;;
37483;SDS011;23337;52.212;9.926;2022-08-19T11:50:20;2.53;;;1.67;;
37483;SDS011;23337;52.212;9.926;2022-08-19T11:52:48;2.33;;;1.67;;
37483;SDS011;23337;52.212;9.926;2022-08-19T11:55:14;3.07;;;2.40;;
37483;SDS011;23337;52.212;9.926;2022-08-19T11:57:40;4.03;;;1.90;;
37483;SDS011;23337;52.212;9.926;2022-08-19T12:00:08;4.27;;;2.10;;
37483;SDS011;23337;52.212;9.926;2022-08-19T12:02:36;1.70;;;1.60;;
37483;SDS011;23337;52.212;9.926;2022-08-19T12:05:02;4.77;;;2.17;;
37483;SDS011;23337;52.212;9.926;2022-08-19T12:07:29;2.50;;;1.83;;
37483;SDS011;23337;52.212;9.926;2022-08-19T12:09:58;3.27;;;2.20;;
37483;SDS011;23337;52.212;9.926;2022-08-19T12:12:24;3.13;;;2.00;;
37483;SDS011;23337;52.212;9.926;2022-08-19T12:14:51;3.37;;;2.00;;
37483;SDS011;23337;52.212;9.926;2022-08-19T12:17:22;1.67;;;1.57;;
37483;SDS011;23337;52.212;9.926;2022-08-19T12:19:48;2.17;;;1.70;;
37483;SDS011;23337;52.212;9.926;2022-08-19T12:22:14;1.77;;;1.67;;
37483;SDS011;23337;52.212;9.926;2022-08-19T12:24:40;3.93;;;1.83;;
37483;SDS011;23337;52.212;9.926;2022-08-19T12:27:06;3.33;;;1.83;;
37483;SDS011;23337;52.212;9.926;2022-08-19T12:29:32;3.03;;;2.33;;
37483;SDS011;23337;52.212;9.926;2022-08-19T12:31:58;2.37;;;1.60;;
37483;SDS011;23337;52.212;9.926;2022-08-19T12:34:30;3.80;;;2.10;;
37483;SDS011;23337;52.212;9.926;2022-08-19T12:36:57;2.60;;;2.40;;
37483;SDS011;23337;52.212;9.926;2022-08-19T12:39:23;2.37;;;1.80;;
37483;SDS011;23337;52.212;9.926;2022-08-19T12:41:49;2.43;;;1.70;;
37483;SDS011;23337;52.212;9.926;2022-08-19T12:44:15;2.97;;;1.80;;
37483;SDS011;23337;52.212;9.926;2022-08-19T12:46:41;2.43;;;1.70;;
37483;SDS011;23337;52.212;9.926;2022-08-19T12:49:07;2.63;;;1.47;;
37483;SDS011;23337;52.212;9.926;2022-08-19T12:51:35;1.10;;;1.00;;
37483;SDS011;23337;52.212;9.926;2022-08-19T12:54:02;3.20;;;1.53;;
37483;SDS011;23337;52.212;9.926;2022-08-19T12:56:29;2.07;;;1.60;;
37483;SDS011;23337;52.212;9.926;2022-08-19T12:58:56;2.17;;;1.30;;
37483;SDS011;23337;52.212;9.926;2022-08-19T13:01:21;4.40;;;1.40;;
37483;SDS011;23337;52.212;9.926;2022-08-19T13:03:48;2.00;;;1.30;;
37483;SDS011;23337;52.212;9.926;2022-08-19T13:06:13;1.90;;;1.80;;
37483;SDS011;23337;52.212;9.926;2022-08-19T13:08:40;2.50;;;1.60;;
37483;SDS011;23337;52.212;9.926;2022-08-19T13:11:07;2.17;;;1.97;;
37483;SDS011;23337;52.212;9.926;2022-08-19T13:13:35;1.97;;;1.63;;
37483;SDS011;23337;52.212;9.926;2022-08-19T13:16:01;1.63;;;1.10;;
37483;SDS011;23337;52.212;9.926;2022-08-19T13:18:28;2.27;;;1.70;;
37483;SDS011;23337;52.212;9.926;2022-08-19T13:20:54;1.60;;;1.50;;
37483;SDS011;23337;52.212;9.926;2022-08-19T13:23:21;4.07;;;1.67;;
37483;SDS011;23337;52.212;9.926;2022-08-19T13:25:55;1.53;;;1.27;;
37483;SDS011;23337;52.212;9.926;2022-08-19T13:28:21;3.20;;;1.40;;
37483;SDS011;23337;52.212;9.926;2022-08-19T13:30:47;1.60;;;1.50;;
37483;SDS011;23337;52.212;9.926;2022-08-19T13:33:32;4.57;;;1.60;;
37483;SDS011;23337;52.212;9.926;2022-08-19T13:35:59;2.13;;;1.60;;
37483;SDS011;23337;52.212;9.926;2022-08-19T13:38:32;2.23;;;1.53;;
37483;SDS011;23337;52.212;9.926;2022-08-19T13:41:03;3.90;;;1.20;;
37483;SDS011;23337;52.212;9.926;2022-08-19T13:43:29;3.20;;;1.20;;
37483;SDS011;23337;52.212;9.926;2022-08-19T13:45:55;6.53;;;1.42;;
37483;SDS011;23337;52.212;9.926;2022-08-19T13:48:22;6.85;;;1.40;;
37483;SDS011;23337;52.212;9.926;2022-08-19T13:50:48;3.85;;;1.50;;
37483;SDS011;23337;52.212;9.926;2022-08-19T13:53:14;1.98;;;1.40;;
37483;SDS011;23337;52.212;9.926;2022-08-19T13:55:41;1.50;;;1.20;;
37483;SDS011;23337;52.212;9.926;2022-08-19T13:58:07;2.35;;;1.20;;
37483;SDS011;23337;52.212;9.926;2022-08-19T14:00:36;1.70;;;1.60;;
37483;SDS011;23337;52.212;9.926;2022-08-19T14:03:03;2.45;;;1.10;;
37483;SDS011;23337;52.212;9.926;2022-08-19T14:05:29;1.20;;;1.00;;
37483;SDS011;23337;52.212;9.926;2022-08-19T14:07:55;0.90;;;0.90;;
37483;SDS011;23337;52.212;9.926;2022-08-19T14:10:22;1.08;;;0.98;;
37483;SDS011;23337;52.212;9.926;2022-08-19T14:12:48;1.17;;;1.08;;
37483;SDS011;23337;52.212;9.926;2022-08-19T14:15:14;3.53;;;1.73;;
37483;SDS011;23337;52.212;9.926;2022-08-19T14:17:41;1.20;;;1.10;;
37483;SDS011;23337;52.212;9.926;2022-08-19T14:20:08;3.53;;;1.42;;
37483;SDS011;23337;52.212;9.926;2022-08-19T14:22:35;1.88;;;1.27;;
37483;SDS011;23337;52.212;9.926;2022-08-19T14:25:03;1.60;;;1.17;;
37483;SDS011;23337;52.212;9.926;2022-08-19T14:27:29;1.17;;;1.00;;
37483;SDS011;23337;52.212;9.926;2022-08-19T14:29:55;1.85;;;1.00;;
37483;SDS011;23337;52.212;9.926;2022-08-19T14:32:21;2.25;;;1.10;;
37483;SDS011;23337;52.212;9.926;2022-08-19T14:34:47;1.08;;;0.95;;
37483;SDS011;23337;52.212;9.926;2022-08-19T14:37:14;2.83;;;1.33;;
37483;SDS011;23337;52.212;9.926;2022-08-19T14:39:41;1.83;;;1.00;;
37483;SDS011;23337;52.212;9.926;2022-08-19T14:42:08;2.97;;;1.30;;
37483;SDS011;23337;52.212;9.926;2022-08-19T14:44:34;1.17;;;1.08;;
37483;SDS011;23337;52.212;9.926;2022-08-19T14:47:01;1.40;;;1.30;;
37483;SDS011;23337;52.212;9.926;2022-08-19T14:49:27;3.03;;;1.10;;